createdAt,value
2023-03-13T00:00:26.820Z,822.00
2023-03-13T00:01:26.808Z,814.00
2023-03-13T00:02:26.834Z,812.00
2023-03-13T00:03:26.745Z,823.00
2023-03-13T00:04:26.749Z,815.00
2023-03-13T00:05:26.694Z,825.00
2023-03-13T00:06:26.650Z,824.00
2023-03-13T00:07:26.623Z,815.00
2023-03-13T00:08:26.653Z,818.00
2023-03-13T00:09:26.590Z,825.00
2023-03-13T00:10:26.553Z,814.00
2023-03-13T00:11:26.504Z,801.00
2023-03-13T00:12:26.481Z,815.00
2023-03-13T00:13:26.464Z,796.00
2023-03-13T00:14:26.470Z,814.00
2023-03-13T00:15:26.403Z,801.00
2023-03-13T00:16:26.417Z,798.00
2023-03-13T00:17:26.334Z,795.00
2023-03-13T00:18:26.310Z,795.00
2023-03-13T00:19:26.285Z,787.00
2023-03-13T00:20:26.256Z,798.00
2023-03-13T00:21:26.232Z,777.00
2023-03-13T00:22:26.201Z,785.00
2023-03-13T00:23:26.171Z,784.00
2023-03-13T00:24:26.146Z,773.00
2023-03-13T00:25:26.113Z,765.00
2023-03-13T00:26:26.092Z,758.00
2023-03-13T00:27:26.066Z,745.00
2023-03-13T00:28:26.021Z,766.00
2023-03-13T00:29:25.995Z,747.00
2023-03-13T00:30:26.018Z,748.00
2023-03-13T00:31:26.091Z,737.00
2023-03-13T00:32:25.933Z,737.00
2023-03-13T00:33:25.896Z,742.00
2023-03-13T00:34:25.912Z,742.00
2023-03-13T00:35:25.927Z,728.00
2023-03-13T00:36:25.807Z,719.00
2023-03-13T00:37:25.804Z,724.00
2023-03-13T00:38:25.766Z,731.00
2023-03-13T00:39:25.733Z,718.00
2023-03-13T00:40:25.707Z,719.00
2023-03-13T00:41:25.684Z,708.00
2023-03-13T00:42:25.662Z,717.00
2023-03-13T00:43:25.654Z,700.00
2023-03-13T00:44:25.610Z,705.00
2023-03-13T00:45:25.566Z,701.00
2023-03-13T00:46:25.545Z,703.00
2023-03-13T00:47:25.498Z,700.00
2023-03-13T00:48:25.480Z,701.00
2023-03-13T00:49:25.451Z,702.00
2023-03-13T00:50:25.425Z,695.00
2023-03-13T00:51:25.408Z,686.00
2023-03-13T00:52:25.360Z,682.00
2023-03-13T00:53:25.341Z,682.00
2023-03-13T00:54:25.308Z,677.00
2023-03-13T00:55:25.271Z,684.00
2023-03-13T00:56:25.259Z,672.00
2023-03-13T00:57:25.223Z,677.00
2023-03-13T00:58:25.174Z,680.00
2023-03-13T00:59:25.153Z,679.00
2023-03-13T01:00:25.095Z,667.00
2023-03-13T01:01:25.062Z,666.00
2023-03-13T01:02:25.097Z,666.00
2023-03-13T01:03:25.175Z,675.00
2023-03-13T01:04:24.963Z,664.00
2023-03-13T01:05:24.921Z,665.00
2023-03-13T01:06:24.901Z,666.00
2023-03-13T01:07:24.865Z,669.00
2023-03-13T01:08:24.833Z,670.00
2023-03-13T01:09:24.808Z,662.00
2023-03-13T01:10:24.774Z,664.00
2023-03-13T01:11:24.743Z,667.00
2023-03-13T01:12:24.708Z,671.00
2023-03-13T01:13:24.748Z,666.00
2023-03-13T01:14:24.644Z,665.00
2023-03-13T01:15:24.614Z,669.00
2023-03-13T01:16:24.580Z,662.00
2023-03-13T01:17:24.558Z,668.00
2023-03-13T01:18:24.532Z,664.00
2023-03-13T01:19:24.520Z,660.00
2023-03-13T01:20:24.483Z,659.00
2023-03-13T01:21:24.452Z,665.00
2023-03-13T01:22:24.426Z,665.00
2023-03-13T01:23:24.414Z,664.00
2023-03-13T01:24:24.375Z,666.00
2023-03-13T01:25:24.358Z,664.00
2023-03-13T01:26:24.359Z,664.00
2023-03-13T01:27:24.307Z,670.00
2023-03-13T01:28:24.280Z,669.00
2023-03-13T01:29:24.262Z,662.00
2023-03-13T01:30:24.228Z,664.00
2023-03-13T01:31:24.299Z,660.00
2023-03-13T01:32:24.217Z,664.00
2023-03-13T01:33:24.136Z,674.00
2023-03-13T01:34:24.111Z,662.00
2023-03-13T01:35:24.150Z,668.00
2023-03-13T01:36:24.037Z,662.00
2023-03-13T01:37:24.022Z,667.00
2023-03-13T01:38:23.975Z,665.00
2023-03-13T01:39:23.966Z,673.00
2023-03-13T01:40:23.951Z,664.00
2023-03-13T01:41:23.913Z,661.00
2023-03-13T01:42:23.883Z,662.00
2023-03-13T01:43:26.879Z,661.00
2023-03-13T01:44:23.815Z,671.00
2023-03-13T01:45:23.795Z,666.00
2023-03-13T01:46:23.766Z,663.00
2023-03-13T01:47:23.740Z,664.00
2023-03-13T01:48:23.706Z,661.00
2023-03-13T01:49:23.686Z,664.00
2023-03-13T01:50:23.692Z,663.00
2023-03-13T01:51:23.636Z,662.00
2023-03-13T01:52:23.594Z,663.00
2023-03-13T01:53:23.596Z,661.00
2023-03-13T01:54:23.555Z,662.00
2023-03-13T01:55:23.529Z,663.00
2023-03-13T01:56:23.513Z,664.00
2023-03-13T01:57:23.468Z,661.00
2023-03-13T01:58:23.426Z,662.00
2023-03-13T01:59:23.397Z,663.00
2023-03-13T02:00:23.373Z,679.00
2023-03-13T02:01:23.359Z,660.00
2023-03-13T02:02:23.347Z,663.00
2023-03-13T02:03:23.301Z,659.00
2023-03-13T02:04:23.277Z,660.00
2023-03-13T02:05:23.250Z,655.00
2023-03-13T02:06:23.213Z,653.00
2023-03-13T02:07:23.188Z,657.00
2023-03-13T02:08:23.157Z,656.00
2023-03-13T02:09:23.132Z,655.00
2023-03-13T02:10:23.117Z,652.00
2023-03-13T02:11:23.128Z,657.00
2023-03-13T02:12:23.052Z,657.00
2023-03-13T02:13:23.034Z,659.00
2023-03-13T02:14:22.984Z,659.00
2023-03-13T02:15:22.956Z,659.00
2023-03-13T02:16:22.996Z,656.00
2023-03-13T02:17:22.900Z,655.00
2023-03-13T02:18:22.907Z,662.00
2023-03-13T02:19:22.854Z,658.00
2023-03-13T02:20:22.855Z,656.00
2023-03-13T02:21:22.783Z,663.00
2023-03-13T02:22:22.754Z,659.00
2023-03-13T02:23:22.724Z,659.00
2023-03-13T02:24:22.726Z,661.00
2023-03-13T02:25:22.673Z,657.00
2023-03-13T02:26:22.673Z,658.00
2023-03-13T02:27:22.638Z,656.00
2023-03-13T02:28:22.623Z,652.00
2023-03-13T02:29:22.576Z,655.00
2023-03-13T02:30:22.545Z,653.00
2023-03-13T02:31:22.623Z,658.00
2023-03-13T02:32:22.618Z,652.00
2023-03-13T02:33:22.474Z,659.00
2023-03-13T02:34:22.437Z,656.00
2023-03-13T02:35:22.459Z,657.00
2023-03-13T02:36:22.381Z,654.00
2023-03-13T02:37:22.361Z,651.00
2023-03-13T02:38:22.321Z,653.00
2023-03-13T02:39:22.296Z,655.00
2023-03-13T02:40:22.272Z,650.00
2023-03-13T02:41:22.233Z,656.00
2023-03-13T02:42:22.205Z,654.00
2023-03-13T02:43:22.169Z,650.00
2023-03-13T02:44:22.156Z,656.00
2023-03-13T02:45:22.119Z,660.00
2023-03-13T02:46:22.103Z,653.00
2023-03-13T02:47:22.081Z,657.00
2023-03-13T02:48:22.030Z,658.00
2023-03-13T02:49:22.007Z,659.00
2023-03-13T02:50:21.976Z,655.00
2023-03-13T02:51:21.967Z,656.00
2023-03-13T02:52:21.918Z,652.00
2023-03-13T02:53:21.899Z,650.00
2023-03-13T02:54:21.874Z,654.00
2023-03-13T02:55:21.838Z,654.00
2023-03-13T02:56:21.805Z,656.00
2023-03-13T02:57:21.785Z,654.00
2023-03-13T02:58:21.744Z,658.00
2023-03-13T02:59:21.718Z,658.00
2023-03-13T06:59:14.681Z,1445.00
2023-03-13T07:07:25.540Z,1645.00
2023-03-13T07:09:14.333Z,1670.00
2023-03-13T07:10:14.267Z,1741.00
2023-03-13T07:11:14.238Z,1657.00
2023-03-13T07:12:14.308Z,1706.00
2023-03-13T07:13:14.170Z,1794.00
2023-03-13T07:14:17.458Z,1941.00
2023-03-13T07:15:14.176Z,1661.00
2023-03-13T07:16:14.275Z,1723.00
2023-03-13T07:17:14.053Z,1831.00
2023-03-13T07:18:14.024Z,1995.00
2023-03-13T07:19:13.985Z,2231.00
2023-03-13T07:20:15.680Z,2250.00
2023-03-13T07:21:14.018Z,2250.00
2023-03-13T07:22:13.996Z,2252.00
2023-03-13T07:23:13.948Z,2263.00
2023-03-13T07:24:13.933Z,2292.00
2023-03-13T07:25:13.881Z,2311.00
2023-03-13T07:26:13.941Z,2296.00
2023-03-13T07:27:13.803Z,2298.00
2023-03-13T07:28:13.792Z,2308.00
2023-03-13T07:29:13.669Z,2327.00
2023-03-13T07:30:13.619Z,2299.00
2023-03-13T07:31:13.632Z,2310.00
2023-03-13T07:32:13.618Z,2333.00
2023-03-13T07:33:13.555Z,2336.00
2023-03-13T07:34:13.534Z,2300.00
2023-03-13T07:35:13.535Z,2309.00
2023-03-13T07:36:13.431Z,2333.00
2023-03-13T07:37:13.354Z,2355.00
2023-03-13T07:38:13.361Z,2419.00
2023-03-13T07:39:13.256Z,2424.00
2023-03-13T07:40:13.221Z,2419.00
2023-03-13T07:41:13.184Z,2386.00
2023-03-13T07:42:13.204Z,2394.00
2023-03-13T07:43:13.099Z,2413.00
2023-03-13T07:44:13.085Z,2380.00
2023-03-13T07:45:13.470Z,2366.00
2023-03-13T07:46:13.014Z,2372.00
2023-03-13T07:47:12.919Z,2379.00
2023-03-13T07:48:12.966Z,2392.00
2023-03-13T07:49:13.387Z,2438.00
2023-03-13T07:50:12.835Z,2425.00
2023-03-13T07:51:12.769Z,2410.00
2023-03-13T07:52:13.044Z,2427.00
2023-03-13T07:53:15.358Z,2490.00
2023-03-13T07:54:12.621Z,2474.00
2023-03-13T07:55:12.612Z,2490.00
2023-03-13T07:56:12.561Z,2074.00
2023-03-13T07:57:12.492Z,1788.00
2023-03-13T07:58:12.439Z,1772.00
2023-03-13T07:59:12.431Z,1528.00
2023-03-13T08:00:12.393Z,1322.00
2023-03-13T08:01:12.578Z,1056.00
2023-03-13T08:02:12.362Z,1131.00
2023-03-13T08:03:12.434Z,913.00
2023-03-13T08:04:12.222Z,900.00
2023-03-13T08:05:12.202Z,641.00
2023-03-13T08:06:12.245Z,533.00
2023-03-13T08:07:12.122Z,490.00
2023-03-13T08:08:12.067Z,471.00
2023-03-13T08:09:12.036Z,574.00
2023-03-13T08:10:12.020Z,424.00
2023-03-13T08:11:12.067Z,574.00
2023-03-13T08:12:11.939Z,528.00
2023-03-13T08:13:11.902Z,515.00
2023-03-13T08:14:12.044Z,502.00
2023-03-13T08:15:11.842Z,496.00
2023-03-13T08:16:11.939Z,598.00
2023-03-13T08:17:11.777Z,582.00
2023-03-13T08:18:11.739Z,525.00
2023-03-13T08:19:12.462Z,547.00
2023-03-13T09:01:13.035Z,2165.00
2023-03-13T09:37:09.217Z,3499.00
2023-03-13T09:38:09.153Z,3516.00
2023-03-13T09:39:09.123Z,3539.00
2023-03-13T09:40:09.087Z,3535.00
2023-03-13T09:41:09.010Z,3523.00
2023-03-13T09:42:08.978Z,3520.00
2023-03-13T09:43:08.948Z,3511.00
2023-03-13T09:44:09.015Z,3520.00
2023-03-13T09:45:08.827Z,3522.00
2023-03-13T09:46:08.846Z,3489.00
2023-03-13T09:47:08.815Z,3452.00
2023-03-13T09:48:08.716Z,3464.00
2023-03-13T09:49:08.664Z,3420.00
2023-03-13T09:50:08.615Z,3396.00
2023-03-13T09:51:08.587Z,3396.00
2023-03-13T09:52:08.535Z,3397.00
2023-03-13T09:53:08.523Z,3356.00
2023-03-13T09:54:08.450Z,3334.00
2023-03-13T09:55:08.398Z,3295.00
2023-03-13T09:56:08.350Z,3241.00
2023-03-13T09:57:08.319Z,3258.00
2023-03-13T09:58:08.298Z,3217.00
2023-03-13T09:59:10.668Z,3182.00
2023-03-13T10:00:08.214Z,3173.00
2023-03-13T10:01:08.193Z,3123.00
2023-03-13T10:02:08.180Z,3104.00
2023-03-13T10:03:08.122Z,3066.00
2023-03-13T10:04:08.210Z,3056.00
2023-03-13T10:05:08.016Z,3030.00
2023-03-13T10:06:07.971Z,3023.00
2023-03-13T10:07:07.939Z,2967.00
2023-03-13T10:08:08.020Z,2959.00
2023-03-13T10:09:07.872Z,2944.00
2023-03-13T10:10:08.132Z,2924.00
2023-03-13T10:11:07.820Z,2897.00
2023-03-13T10:12:07.751Z,2867.00
2023-03-13T10:13:07.710Z,2845.00
2023-03-13T10:14:07.658Z,2828.00
2023-03-13T10:15:07.605Z,2815.00
2023-03-13T10:16:07.636Z,2797.00
2023-03-13T10:17:07.546Z,2786.00
2023-03-13T10:18:07.508Z,2775.00
2023-03-13T10:19:07.498Z,2745.00
2023-03-13T10:20:07.463Z,2744.00
2023-03-13T10:21:07.384Z,2723.00
2023-03-13T10:22:07.367Z,2712.00
2023-03-13T10:23:07.283Z,2721.00
2023-03-13T10:24:07.250Z,2676.00
2023-03-13T10:25:08.026Z,2665.00
2023-03-13T10:26:07.201Z,2621.00
2023-03-13T10:27:07.149Z,2621.00
2023-03-13T10:28:08.029Z,2614.00
2023-03-13T10:29:07.086Z,2601.00
2023-03-13T10:30:07.062Z,2592.00
2023-03-13T10:31:07.103Z,2561.00
2023-03-13T10:32:07.079Z,2551.00
2023-03-13T10:33:06.947Z,2550.00
2023-03-13T10:34:06.917Z,2553.00
2023-03-13T10:35:06.884Z,2532.00
2023-03-13T10:36:06.975Z,2526.00
2023-03-13T10:37:06.782Z,2538.00
2023-03-13T10:38:06.773Z,2521.00
2023-03-13T10:39:06.696Z,2483.00
2023-03-13T10:40:06.686Z,2497.00
2023-03-13T10:41:06.665Z,2450.00
2023-03-13T10:42:07.392Z,2381.00
2023-03-13T10:43:06.588Z,2131.00
2023-03-13T10:44:06.505Z,1033.00
2023-03-13T10:45:06.490Z,762.00
2023-03-13T10:46:06.445Z,646.00
2023-03-13T10:47:06.453Z,882.00
2023-03-13T10:48:06.392Z,761.00
2023-03-13T10:49:06.359Z,528.00
2023-03-13T10:50:06.354Z,521.00
2023-03-13T10:51:06.319Z,729.00
2023-03-13T10:52:06.423Z,511.00
2023-03-13T10:53:06.265Z,482.00
2023-03-13T10:54:06.258Z,498.00
2023-03-13T10:55:06.229Z,400.00
2023-03-13T10:56:06.286Z,472.00
2023-03-13T10:57:06.192Z,495.00
2023-03-13T10:58:06.234Z,500.00
2023-03-13T10:59:06.171Z,511.00
2023-03-13T11:00:06.139Z,457.00
2023-03-13T11:01:06.154Z,489.00
2023-03-13T11:02:06.102Z,459.00
2023-03-13T11:03:06.657Z,455.00
2023-03-13T11:04:06.108Z,468.00
2023-03-13T11:05:06.086Z,530.00
2023-03-13T11:06:06.058Z,450.00
2023-03-13T11:07:06.067Z,500.00
2023-03-13T11:08:06.110Z,478.00
2023-03-13T11:09:06.098Z,563.00
2023-03-13T11:10:06.011Z,541.00
2023-03-13T11:11:06.026Z,496.00
2023-03-13T11:12:06.002Z,500.00
2023-03-13T11:13:06.026Z,513.00
2023-03-13T11:14:06.018Z,563.00
2023-03-13T11:15:06.074Z,633.00
2023-03-13T11:16:06.049Z,628.00
2023-03-13T11:17:06.035Z,641.00
2023-03-13T11:18:06.029Z,635.00
2023-03-13T11:19:06.086Z,580.00
2023-03-13T11:20:06.063Z,520.00
2023-03-13T11:21:17.796Z,540.00
2023-03-13T11:22:07.115Z,544.00
2023-03-13T11:23:06.068Z,543.00
2023-03-13T11:24:06.077Z,500.00
2023-03-13T11:25:06.109Z,546.00
2023-03-13T11:26:06.114Z,491.00
2023-03-13T11:27:06.155Z,465.00
2023-03-13T11:28:06.184Z,587.00
2023-03-13T11:29:06.144Z,571.00
2023-03-13T11:30:06.149Z,573.00
2023-03-13T11:31:06.221Z,528.00
2023-03-13T11:32:07.868Z,536.00
2023-03-13T11:33:06.414Z,453.00
2023-03-13T11:34:06.261Z,526.00
2023-03-13T11:35:06.260Z,560.00
2023-03-13T11:36:06.322Z,802.00
2023-03-13T11:37:06.321Z,2234.00
2023-03-13T11:38:07.151Z,2704.00
2023-03-13T11:39:06.320Z,2986.00
2023-03-13T11:40:06.300Z,3152.00
2023-03-13T11:41:06.294Z,2701.00
2023-03-13T11:42:06.270Z,2549.00
2023-03-13T11:43:21.823Z,2556.00
2023-03-13T11:44:07.272Z,2566.00
2023-03-13T11:45:06.264Z,2641.00
2023-03-13T11:46:06.311Z,2808.00
2023-03-13T11:47:06.240Z,3081.00
2023-03-13T11:48:06.150Z,3493.00
2023-03-13T11:49:06.146Z,3644.00
2023-03-13T11:50:06.081Z,3735.00
2023-03-13T11:51:06.138Z,3812.00
2023-03-13T11:52:06.027Z,3865.00
2023-03-13T11:53:06.058Z,3867.00
2023-03-13T11:54:05.944Z,3885.00
2023-03-13T11:55:05.930Z,3872.00
2023-03-13T11:56:05.945Z,3900.00
2023-03-13T11:57:05.846Z,3962.00
2023-03-13T11:58:05.782Z,4059.00
2023-03-13T11:59:05.820Z,4210.00
2023-03-13T12:00:05.775Z,4250.00
2023-03-13T12:01:05.696Z,4265.00
2023-03-13T12:02:05.719Z,4301.00
2023-03-13T12:03:05.623Z,4327.00
2023-03-13T12:04:05.596Z,4389.00
2023-03-13T12:05:05.578Z,4485.00
2023-03-13T12:06:06.694Z,4495.00
2023-03-13T12:07:06.462Z,4496.00
2023-03-13T12:08:05.440Z,4504.00
2023-03-13T12:09:05.371Z,4521.00
2023-03-13T12:10:05.392Z,4562.00
2023-03-13T12:11:05.309Z,4597.00
2023-03-13T12:12:05.361Z,4630.00
2023-03-13T12:13:05.226Z,4703.00
2023-03-13T12:14:05.204Z,4767.00
2023-03-13T12:15:05.280Z,4778.00
2023-03-13T12:16:05.282Z,4840.00
2023-03-13T12:17:05.098Z,4879.00
2023-03-13T12:18:05.073Z,4906.00
2023-03-13T12:19:05.035Z,4891.00
2023-03-13T12:20:05.035Z,4950.00
2023-03-13T12:21:05.063Z,4949.00
2023-03-13T12:22:05.126Z,4980.00
2023-03-13T12:23:04.905Z,4973.00
2023-03-13T12:24:05.373Z,5014.00
2023-03-13T12:25:06.542Z,5013.00
2023-03-13T12:26:04.789Z,5015.00
2023-03-13T12:27:04.758Z,5080.00
2023-03-13T12:28:04.905Z,5126.00
2023-03-13T12:29:04.686Z,5085.00
2023-03-13T12:30:04.613Z,5100.00
2023-03-13T12:31:04.662Z,5129.00
2023-03-13T12:32:04.554Z,5148.00
2023-03-13T12:33:04.960Z,5143.00
2023-03-13T12:34:04.487Z,5187.00
2023-03-13T12:35:04.463Z,5741.00
2023-03-13T12:36:04.407Z,6965.00
2023-03-13T12:37:04.350Z,8314.00
2023-03-13T12:38:04.293Z,9700.00
2023-03-13T12:39:04.279Z,10510.00
2023-03-13T12:40:04.249Z,10865.00
2023-03-13T12:41:04.189Z,10878.00
2023-03-13T12:42:04.153Z,10800.00
2023-03-13T12:43:04.081Z,10652.00
2023-03-13T12:44:09.032Z,10482.00
2023-03-13T12:45:05.032Z,10423.00
2023-03-13T12:46:04.105Z,10377.00
2023-03-13T12:47:03.925Z,10385.00
2023-03-13T12:48:03.914Z,10420.00
2023-03-13T12:49:03.831Z,10388.00
2023-03-13T12:50:03.807Z,10262.00
2023-03-13T12:51:03.762Z,10145.00
2023-03-13T12:52:03.727Z,10092.00
2023-03-13T12:53:03.676Z,10006.00
2023-03-13T12:54:03.706Z,9995.00
2023-03-13T12:55:03.614Z,9958.00
2023-03-13T12:56:03.572Z,9949.00
2023-03-13T12:57:03.500Z,9924.00
2023-03-13T12:58:03.468Z,9895.00
2023-03-13T12:59:03.440Z,9866.00
2023-03-13T13:00:03.405Z,9812.00
2023-03-13T13:01:03.378Z,9759.00
2023-03-13T13:02:03.302Z,9737.00
2023-03-13T13:03:03.275Z,9695.00
2023-03-13T13:04:03.249Z,9660.00
2023-03-13T13:05:03.184Z,9629.00
2023-03-13T13:06:03.180Z,9588.00
2023-03-13T13:07:03.128Z,9584.00
2023-03-13T13:08:03.044Z,9546.00
2023-03-13T13:09:03.007Z,9486.00
2023-03-13T13:10:02.978Z,9441.00
2023-03-13T13:11:02.948Z,9390.00
2023-03-13T13:12:02.872Z,9360.00
2023-03-13T13:13:02.841Z,9360.00
2023-03-13T13:14:02.774Z,9338.00
2023-03-13T13:15:02.740Z,9297.00
2023-03-13T13:16:02.759Z,9265.00
2023-03-13T13:17:02.639Z,9217.00
2023-03-13T13:18:02.607Z,9176.00
2023-03-13T13:19:02.538Z,9173.00
2023-03-13T13:20:02.511Z,9126.00
2023-03-13T13:21:02.452Z,9087.00
2023-03-13T13:22:02.459Z,9056.00
2023-03-13T13:23:02.352Z,9035.00
2023-03-13T13:24:02.356Z,9005.00
2023-03-13T13:25:02.278Z,8961.00
2023-03-13T13:26:02.220Z,8916.00
2023-03-13T13:27:02.220Z,8895.00
2023-03-13T13:28:02.129Z,8887.00
2023-03-13T13:29:02.075Z,8840.00
2023-03-13T13:30:02.128Z,8795.00
2023-03-13T13:31:02.086Z,8785.00
2023-03-13T13:32:01.985Z,8737.00
2023-03-13T13:33:01.912Z,8703.00
2023-03-13T13:34:01.832Z,8666.00
2023-03-13T13:35:01.852Z,8662.00
2023-03-13T13:36:01.788Z,8615.00
2023-03-13T13:37:01.796Z,8575.00
2023-03-13T13:43:02.075Z,8391.00
2023-03-13T14:57:58.087Z,6504.00
2023-03-13T14:58:58.028Z,6473.00
2023-03-13T14:59:57.995Z,6438.00
2023-03-13T15:00:57.979Z,6415.00
2023-03-13T15:01:57.889Z,6402.00
2023-03-13T15:02:57.841Z,6361.00
2023-03-13T15:03:57.879Z,6357.00
2023-03-13T15:04:57.757Z,6337.00
2023-03-13T15:05:57.713Z,6325.00
2023-03-13T15:06:57.659Z,6301.00
2023-03-13T15:07:57.631Z,6281.00
2023-03-13T15:08:57.618Z,6259.00
2023-03-13T15:09:57.531Z,6234.00
2023-03-13T15:10:57.552Z,6209.00
2023-03-13T15:11:57.468Z,6176.00
2023-03-13T15:12:57.482Z,6185.00
2023-03-13T15:13:57.355Z,6181.00
2023-03-13T15:14:57.326Z,6143.00
2023-03-13T15:15:57.308Z,6104.00
2023-03-13T15:16:57.238Z,6090.00
2023-03-13T15:17:57.219Z,6043.00
2023-03-13T15:18:57.157Z,6048.00
2023-03-13T15:19:57.213Z,6038.00
2023-03-13T15:20:57.071Z,5998.00
2023-03-13T15:21:57.041Z,5984.00
2023-03-13T15:22:56.986Z,5966.00
2023-03-13T15:23:56.924Z,5940.00
2023-03-13T15:25:06.030Z,5956.00
2023-03-13T15:25:57.858Z,5956.00
2023-03-13T15:26:56.794Z,5900.00
2023-03-13T15:27:56.802Z,5895.00
2023-03-13T15:28:56.725Z,5887.00
2023-03-13T15:29:56.672Z,5855.00
2023-03-13T15:30:56.627Z,5826.00
2023-03-13T15:31:56.664Z,5814.00
2023-03-13T15:32:56.649Z,5798.00
2023-03-13T15:33:56.517Z,5800.00
2023-03-13T15:34:56.462Z,5795.00
2023-03-13T15:35:56.531Z,5735.00
2023-03-13T15:36:56.402Z,5735.00
2023-03-13T15:37:56.370Z,5712.00
2023-03-13T15:38:56.325Z,5693.00
2023-03-13T15:39:56.237Z,5642.00
2023-03-13T15:40:56.209Z,5665.00
2023-03-13T15:41:56.171Z,5630.00
2023-03-13T15:42:56.138Z,5619.00
2023-03-13T15:43:56.071Z,5586.00
2023-03-13T15:44:56.034Z,5557.00
2023-03-13T15:45:56.061Z,5563.00
2023-03-13T15:46:55.954Z,5510.00
2023-03-13T15:47:55.911Z,5537.00
2023-03-13T15:48:55.870Z,5496.00
2023-03-13T15:49:55.837Z,5488.00
2023-03-13T15:50:55.779Z,5475.00
2023-03-13T15:51:57.839Z,5479.00
2023-03-13T15:52:55.788Z,5470.00
2023-03-13T15:53:55.681Z,5445.00
2023-03-13T15:54:55.718Z,5421.00
2023-03-13T15:55:55.688Z,5413.00
2023-03-13T15:56:55.602Z,5401.00
2023-03-13T15:57:55.546Z,5369.00
2023-03-13T15:58:55.502Z,5350.00
2023-03-13T15:59:55.453Z,5330.00
2023-03-13T16:00:55.455Z,5317.00
2023-03-13T16:01:56.120Z,5285.00
2023-03-13T16:02:55.356Z,5313.00
2023-03-13T16:03:55.316Z,5277.00
2023-03-13T16:04:55.311Z,5240.00
2023-03-13T16:05:55.234Z,5258.00
2023-03-13T16:06:55.187Z,5217.00
2023-03-13T16:07:55.249Z,5220.00
2023-03-13T16:08:55.101Z,5190.00
2023-03-13T16:09:55.056Z,5191.00
2023-03-13T16:10:55.037Z,5170.00
2023-03-13T16:11:54.993Z,5172.00
2023-03-13T16:12:54.955Z,5165.00
2023-03-13T16:13:54.912Z,5145.00
2023-03-13T16:14:54.863Z,5123.00
2023-03-13T16:15:54.810Z,5087.00
2023-03-13T16:16:54.824Z,5082.00
2023-03-13T16:17:54.725Z,5067.00
2023-03-13T16:18:54.686Z,5057.00
2023-03-13T16:19:54.643Z,5078.00
2023-03-13T16:20:54.588Z,5030.00
2023-03-13T16:21:54.557Z,5031.00
2023-03-13T16:22:54.516Z,4993.00
2023-03-13T16:23:54.543Z,5027.00
2023-03-13T16:24:54.442Z,4981.00
2023-03-13T16:25:54.392Z,4988.00
2023-03-13T16:26:54.395Z,4957.00
2023-03-13T16:27:54.316Z,4959.00
2023-03-13T16:28:54.305Z,4939.00
2023-03-13T16:29:54.238Z,4928.00
2023-03-13T16:30:54.250Z,4899.00
2023-03-13T16:31:54.166Z,4935.00
2023-03-13T16:32:54.182Z,4900.00
2023-03-13T16:33:54.217Z,4891.00
2023-03-13T16:34:54.051Z,4858.00
2023-03-13T16:35:54.032Z,4859.00
2023-03-13T16:36:53.971Z,4860.00
2023-03-13T16:37:53.940Z,4851.00
2023-03-13T16:38:53.913Z,4836.00
2023-03-13T16:39:53.883Z,4813.00
2023-03-13T16:40:53.827Z,4819.00
2023-03-13T16:41:53.794Z,4814.00
2023-03-13T16:42:53.746Z,4790.00
2023-03-13T16:43:53.710Z,4752.00
2023-03-13T16:44:53.667Z,4770.00
2023-03-13T16:45:53.677Z,4726.00
2023-03-13T16:47:05.133Z,4730.00
2023-03-13T16:47:54.595Z,4731.00
2023-03-13T16:48:53.534Z,4725.00
2023-03-13T16:49:53.480Z,4709.00
2023-03-13T16:50:53.456Z,4709.00
2023-03-13T16:51:53.409Z,4694.00
2023-03-13T16:52:53.361Z,4657.00
2023-03-13T16:53:53.337Z,4686.00
2023-03-13T16:54:53.290Z,4665.00
2023-03-13T16:55:53.318Z,4650.00
2023-03-13T16:56:53.263Z,4644.00
2023-03-13T16:57:53.182Z,4608.00
2023-03-13T16:58:53.156Z,4608.00
2023-03-13T16:59:53.117Z,4601.00
2023-03-13T17:01:04.677Z,4603.00
2023-03-13T17:01:54.042Z,4604.00
2023-03-13T17:02:53.048Z,4559.00
2023-03-13T17:03:53.067Z,4586.00
2023-03-13T17:04:52.982Z,4557.00
2023-03-13T17:05:52.930Z,4540.00
2023-03-13T17:06:52.888Z,4562.00
2023-03-13T17:07:52.839Z,4542.00
2023-03-13T17:08:52.798Z,4542.00
2023-03-13T17:09:52.773Z,4531.00
2023-03-13T17:10:52.747Z,4502.00
2023-03-13T17:11:52.727Z,4504.00
2023-03-13T17:12:52.666Z,4484.00
2023-03-13T17:13:52.636Z,4472.00
2023-03-13T17:14:52.592Z,4480.00
2023-03-13T17:15:52.606Z,4433.00
2023-03-13T17:16:52.514Z,4461.00
2023-03-13T17:17:52.506Z,4448.00
2023-03-13T17:18:52.449Z,4441.00
2023-03-13T17:19:52.428Z,4417.00
2023-03-13T17:20:52.371Z,4398.00
2023-03-13T17:21:52.327Z,4405.00
2023-03-13T17:22:52.308Z,4396.00
2023-03-13T17:23:52.236Z,4390.00
2023-03-13T17:24:52.205Z,4384.00
2023-03-13T17:25:52.202Z,4381.00
2023-03-13T17:26:52.137Z,4344.00
2023-03-13T17:27:52.099Z,4334.00
2023-03-13T17:28:52.059Z,4342.00
2023-03-13T17:29:52.017Z,4339.00
2023-03-13T17:30:52.013Z,4336.00
2023-03-13T17:31:51.945Z,4297.00
2023-03-13T17:32:51.953Z,4311.00
2023-03-13T17:33:51.922Z,4305.00
2023-03-13T17:34:51.931Z,4269.00
2023-03-13T17:35:51.846Z,4281.00
2023-03-13T17:36:51.877Z,4245.00
2023-03-13T17:37:51.794Z,4254.00
2023-03-13T17:38:51.822Z,4231.00
2023-03-13T20:32:56.976Z,3130.00
2023-03-13T20:34:45.733Z,3116.00
2023-03-13T20:35:45.716Z,3130.00
2023-03-13T20:36:45.677Z,3118.00
2023-03-13T20:37:45.644Z,3091.00
2023-03-13T20:38:45.601Z,3094.00
2023-03-13T20:39:45.568Z,3112.00
2023-03-13T20:40:45.534Z,3092.00
2023-03-13T20:41:45.514Z,3079.00
2023-03-13T20:42:45.472Z,3088.00
2023-03-13T20:43:45.458Z,3065.00
2023-03-13T20:44:45.419Z,3064.00
2023-03-13T20:45:45.377Z,3062.00
2023-03-13T20:46:45.427Z,3068.00
2023-03-13T20:47:45.318Z,3063.00
2023-03-13T20:48:45.289Z,3038.00
2023-03-13T20:49:45.256Z,3047.00
2023-03-13T20:50:45.206Z,3048.00
2023-03-13T20:51:45.173Z,3027.00
2023-03-13T20:52:45.144Z,3033.00
2023-03-13T20:53:45.113Z,3026.00
2023-03-13T20:54:45.096Z,3031.00
2023-03-13T20:55:45.027Z,3027.00
2023-03-13T20:56:44.989Z,3026.00
2023-03-13T20:57:44.953Z,3023.00
2023-03-13T20:58:44.909Z,3010.00
2023-03-13T20:59:44.892Z,3003.00
2023-03-13T21:00:44.841Z,3001.00
2023-03-13T21:01:44.856Z,2995.00
2023-03-13T21:02:44.852Z,2985.00
2023-03-13T21:03:44.745Z,2977.00
2023-03-13T21:04:44.778Z,2970.00
2023-03-13T21:05:44.743Z,2976.00
2023-03-13T21:06:44.752Z,2985.00
2023-03-13T21:07:44.631Z,2964.00
2023-03-13T21:08:44.547Z,2970.00
2023-03-13T21:09:44.590Z,2959.00
2023-03-13T21:10:44.476Z,2961.00
2023-03-13T21:11:44.495Z,2953.00
2023-03-13T21:12:44.422Z,2934.00
2023-03-13T21:13:44.411Z,2944.00
2023-03-13T21:14:44.450Z,2935.00
2023-03-13T21:15:44.295Z,2929.00
2023-03-13T21:16:44.244Z,2912.00
2023-03-13T21:17:44.207Z,2909.00
2023-03-13T21:18:44.170Z,2920.00
2023-03-13T21:19:44.135Z,2910.00
2023-03-13T21:20:44.113Z,2924.00
2023-03-13T21:21:45.614Z,2916.00
2023-03-13T21:22:44.203Z,2915.00
2023-03-13T21:23:44.160Z,2908.00
2023-03-13T21:24:44.121Z,2907.00
2023-03-13T21:25:44.078Z,2889.00
2023-03-13T21:26:44.051Z,2902.00
2023-03-13T21:27:44.020Z,2900.00
2023-03-13T21:28:43.951Z,2914.00
2023-03-13T21:29:43.918Z,2889.00
2023-03-13T21:30:43.872Z,2889.00
2023-03-13T21:31:43.895Z,2899.00
2023-03-13T21:32:43.833Z,2894.00
2023-03-13T21:33:43.750Z,2891.00
2023-03-13T21:34:43.707Z,2877.00
2023-03-13T21:35:43.686Z,2890.00
2023-03-13T21:36:43.679Z,2891.00
2023-03-13T21:37:43.593Z,2887.00
2023-03-13T21:38:43.548Z,2897.00
2023-03-13T21:39:43.514Z,2879.00
2023-03-13T21:40:43.482Z,2879.00
2023-03-13T21:41:43.449Z,2863.00
2023-03-13T21:42:43.450Z,2863.00
2023-03-13T21:43:43.395Z,2877.00
2023-03-13T21:44:43.351Z,2880.00
2023-03-13T21:45:43.328Z,2871.00
2023-03-13T21:46:43.353Z,2869.00
2023-03-13T21:47:43.299Z,2855.00